sensor_id;sensor_type;location;lat;lon;timestamp;temperature;humidity
40556;DHT22;26250;45.422;11.100;2022-07-18T00:00:51;28.10;56.80
40556;DHT22;26250;45.422;11.100;2022-07-18T00:03:18;28.10;56.70
40556;DHT22;26250;45.422;11.100;2022-07-18T00:05:45;28.00;56.80
40556;DHT22;26250;45.422;11.100;2022-07-18T00:08:12;28.20;56.60
40556;DHT22;26250;45.422;11.100;2022-07-18T00:10:39;28.30;55.70
40556;DHT22;26250;45.422;11.100;2022-07-18T00:13:06;28.50;55.80
40556;DHT22;26250;45.422;11.100;2022-07-18T00:15:33;28.50;56.00
40556;DHT22;26250;45.422;11.100;2022-07-18T00:18:00;28.20;56.10
40556;DHT22;26250;45.422;11.100;2022-07-18T00:20:29;28.00;56.00
40556;DHT22;26250;45.422;11.100;2022-07-18T00:22:56;27.80;57.00
40556;DHT22;26250;45.422;11.100;2022-07-18T00:25:23;27.80;56.40
40556;DHT22;26250;45.422;11.100;2022-07-18T00:27:50;27.90;56.60
40556;DHT22;26250;45.422;11.100;2022-07-18T00:30:16;27.90;56.30
40556;DHT22;26250;45.422;11.100;2022-07-18T00:32:43;28.10;56.00
40556;DHT22;26250;45.422;11.100;2022-07-18T00:35:10;28.10;55.60
40556;DHT22;26250;45.422;11.100;2022-07-18T00:37:37;28.00;56.20
40556;DHT22;26250;45.422;11.100;2022-07-18T00:40:05;27.90;56.20
40556;DHT22;26250;45.422;11.100;2022-07-18T00:42:33;27.80;56.50
40556;DHT22;26250;45.422;11.100;2022-07-18T00:45:00;27.80;56.50
40556;DHT22;26250;45.422;11.100;2022-07-18T00:47:29;27.80;57.10
40556;DHT22;26250;45.422;11.100;2022-07-18T00:49:57;27.70;57.30
40556;DHT22;26250;45.422;11.100;2022-07-18T00:52:24;27.70;57.30
40556;DHT22;26250;45.422;11.100;2022-07-18T00:54:50;27.70;57.50
40556;DHT22;26250;45.422;11.100;2022-07-18T00:57:17;27.70;57.20
40556;DHT22;26250;45.422;11.100;2022-07-18T00:59:45;27.90;56.80
40556;DHT22;26250;45.422;11.100;2022-07-18T01:02:32;27.90;56.90
40556;DHT22;26250;45.422;11.100;2022-07-18T01:05:00;27.90;56.40
40556;DHT22;26250;45.422;11.100;2022-07-18T01:07:26;27.90;55.10
40556;DHT22;26250;45.422;11.100;2022-07-18T01:09:54;27.80;55.50
40556;DHT22;26250;45.422;11.100;2022-07-18T01:12:21;27.90;54.70
40556;DHT22;26250;45.422;11.100;2022-07-18T01:14:48;28.00;54.40
40556;DHT22;26250;45.422;11.100;2022-07-18T01:17:17;28.00;54.60
40556;DHT22;26250;45.422;11.100;2022-07-18T01:19:46;28.10;53.80
40556;DHT22;26250;45.422;11.100;2022-07-18T01:22:15;28.10;53.10
40556;DHT22;26250;45.422;11.100;2022-07-18T01:24:43;28.10;52.80
40556;DHT22;26250;45.422;11.100;2022-07-18T01:27:20;28.20;52.60
40556;DHT22;26250;45.422;11.100;2022-07-18T01:29:50;28.20;51.80
40556;DHT22;26250;45.422;11.100;2022-07-18T01:32:19;28.20;52.20
40556;DHT22;26250;45.422;11.100;2022-07-18T01:34:47;28.20;51.00
40556;DHT22;26250;45.422;11.100;2022-07-18T01:37:15;28.20;51.70
40556;DHT22;26250;45.422;11.100;2022-07-18T01:39:43;28.20;50.70
40556;DHT22;26250;45.422;11.100;2022-07-18T01:42:12;28.20;51.10
40556;DHT22;26250;45.422;11.100;2022-07-18T01:44:39;28.20;50.20
40556;DHT22;26250;45.422;11.100;2022-07-18T01:47:08;28.30;50.10
40556;DHT22;26250;45.422;11.100;2022-07-18T01:49:35;28.30;50.20
40556;DHT22;26250;45.422;11.100;2022-07-18T01:52:03;28.30;50.20
40556;DHT22;26250;45.422;11.100;2022-07-18T01:54:32;28.30;49.80
40556;DHT22;26250;45.422;11.100;2022-07-18T01:57:02;28.30;49.50
40556;DHT22;26250;45.422;11.100;2022-07-18T01:59:32;28.30;49.50
40556;DHT22;26250;45.422;11.100;2022-07-18T02:01:59;28.30;49.40
40556;DHT22;26250;45.422;11.100;2022-07-18T02:04:26;28.30;49.20
40556;DHT22;26250;45.422;11.100;2022-07-18T02:07:15;28.30;48.60
40556;DHT22;26250;45.422;11.100;2022-07-18T02:09:42;28.30;48.40
40556;DHT22;26250;45.422;11.100;2022-07-18T02:12:09;28.40;48.10
40556;DHT22;26250;45.422;11.100;2022-07-18T02:14:38;28.40;48.10
40556;DHT22;26250;45.422;11.100;2022-07-18T02:17:05;28.40;48.20
40556;DHT22;26250;45.422;11.100;2022-07-18T02:19:32;28.30;48.50
40556;DHT22;26250;45.422;11.100;2022-07-18T02:21:59;28.40;48.00
40556;DHT22;26250;45.422;11.100;2022-07-18T02:24:26;28.40;47.90
40556;DHT22;26250;45.422;11.100;2022-07-18T02:26:53;28.40;47.90
40556;DHT22;26250;45.422;11.100;2022-07-18T02:29:21;28.50;47.80
40556;DHT22;26250;45.422;11.100;2022-07-18T02:31:48;28.60;47.70
40556;DHT22;26250;45.422;11.100;2022-07-18T02:34:15;28.60;47.40
40556;DHT22;26250;45.422;11.100;2022-07-18T02:36:44;28.60;47.70
40556;DHT22;26250;45.422;11.100;2022-07-18T02:39:11;28.60;47.80
40556;DHT22;26250;45.422;11.100;2022-07-18T02:41:38;28.60;47.40
40556;DHT22;26250;45.422;11.100;2022-07-18T02:44:04;28.60;48.70
40556;DHT22;26250;45.422;11.100;2022-07-18T02:46:32;28.70;47.30
40556;DHT22;26250;45.422;11.100;2022-07-18T02:49:00;28.70;47.40
40556;DHT22;26250;45.422;11.100;2022-07-18T02:51:27;28.70;47.90
40556;DHT22;26250;45.422;11.100;2022-07-18T02:53:54;28.70;47.30
40556;DHT22;26250;45.422;11.100;2022-07-18T02:56:24;28.70;47.20
40556;DHT22;26250;45.422;11.100;2022-07-18T02:58:51;28.70;47.30
40556;DHT22;26250;45.422;11.100;2022-07-18T03:01:18;28.70;47.50
40556;DHT22;26250;45.422;11.100;2022-07-18T03:03:45;28.80;47.60
40556;DHT22;26250;45.422;11.100;2022-07-18T03:06:12;28.70;47.70
40556;DHT22;26250;45.422;11.100;2022-07-18T03:08:39;28.70;48.30
40556;DHT22;26250;45.422;11.100;2022-07-18T03:11:06;28.70;47.80
40556;DHT22;26250;45.422;11.100;2022-07-18T03:13:33;28.70;47.90
40556;DHT22;26250;45.422;11.100;2022-07-18T03:16:00;28.70;47.90
40556;DHT22;26250;45.422;11.100;2022-07-18T03:18:27;28.70;48.80
40556;DHT22;26250;45.422;11.100;2022-07-18T03:20:54;28.70;48.40
40556;DHT22;26250;45.422;11.100;2022-07-18T03:23:21;28.80;48.30
40556;DHT22;26250;45.422;11.100;2022-07-18T03:25:48;28.80;48.50
40556;DHT22;26250;45.422;11.100;2022-07-18T03:28:15;28.80;48.10
40556;DHT22;26250;45.422;11.100;2022-07-18T03:30:42;28.70;47.90
40556;DHT22;26250;45.422;11.100;2022-07-18T03:33:09;28.80;47.70
40556;DHT22;26250;45.422;11.100;2022-07-18T03:35:36;28.80;47.90
40556;DHT22;26250;45.422;11.100;2022-07-18T03:38:03;28.80;47.60
40556;DHT22;26250;45.422;11.100;2022-07-18T03:40:32;28.80;47.60
40556;DHT22;26250;45.422;11.100;2022-07-18T03:42:59;28.80;47.80
40556;DHT22;26250;45.422;11.100;2022-07-18T03:45:26;28.80;47.50
40556;DHT22;26250;45.422;11.100;2022-07-18T03:47:54;28.80;47.40
40556;DHT22;26250;45.422;11.100;2022-07-18T03:50:22;28.80;47.50
40556;DHT22;26250;45.422;11.100;2022-07-18T03:52:49;28.80;47.60
40556;DHT22;26250;45.422;11.100;2022-07-18T03:55:16;28.80;47.60
40556;DHT22;26250;45.422;11.100;2022-07-18T03:57:43;28.80;47.40
40556;DHT22;26250;45.422;11.100;2022-07-18T04:00:10;28.80;47.40
40556;DHT22;26250;45.422;11.100;2022-07-18T04:02:45;28.80;47.40
40556;DHT22;26250;45.422;11.100;2022-07-18T04:05:16;28.80;47.50
40556;DHT22;26250;45.422;11.100;2022-07-18T04:07:43;28.80;47.60
40556;DHT22;26250;45.422;11.100;2022-07-18T04:10:11;28.80;47.40
40556;DHT22;26250;45.422;11.100;2022-07-18T04:12:51;28.80;47.40
40556;DHT22;26250;45.422;11.100;2022-07-18T04:15:20;28.80;47.50
40556;DHT22;26250;45.422;11.100;2022-07-18T04:17:48;28.90;47.20
40556;DHT22;26250;45.422;11.100;2022-07-18T04:20:16;29.00;46.90
40556;DHT22;26250;45.422;11.100;2022-07-18T04:25:15;29.00;46.90
40556;DHT22;26250;45.422;11.100;2022-07-18T04:27:43;29.10;46.80
40556;DHT22;26250;45.422;11.100;2022-07-18T04:30:11;29.10;46.90
40556;DHT22;26250;45.422;11.100;2022-07-18T04:32:40;29.00;46.80
40556;DHT22;26250;45.422;11.100;2022-07-18T04:35:08;29.00;47.00
40556;DHT22;26250;45.422;11.100;2022-07-18T04:37:35;29.00;46.90
40556;DHT22;26250;45.422;11.100;2022-07-18T04:40:03;29.00;47.00
40556;DHT22;26250;45.422;11.100;2022-07-18T04:42:30;29.00;47.00
40556;DHT22;26250;45.422;11.100;2022-07-18T04:44:58;29.00;47.90
40556;DHT22;26250;45.422;11.100;2022-07-18T04:47:26;29.00;47.20
40556;DHT22;26250;45.422;11.100;2022-07-18T04:49:58;29.10;47.20
40556;DHT22;26250;45.422;11.100;2022-07-18T04:52:26;29.10;47.30
40556;DHT22;26250;45.422;11.100;2022-07-18T04:54:53;29.10;47.40
40556;DHT22;26250;45.422;11.100;2022-07-18T04:57:20;29.00;47.30
40556;DHT22;26250;45.422;11.100;2022-07-18T04:59:47;29.00;47.60
40556;DHT22;26250;45.422;11.100;2022-07-18T05:02:14;29.00;47.30
40556;DHT22;26250;45.422;11.100;2022-07-18T05:04:41;28.90;47.30
40556;DHT22;26250;45.422;11.100;2022-07-18T05:07:08;29.00;47.50
40556;DHT22;26250;45.422;11.100;2022-07-18T05:09:35;29.00;47.20
40556;DHT22;26250;45.422;11.100;2022-07-18T05:12:02;29.00;46.90
40556;DHT22;26250;45.422;11.100;2022-07-18T05:14:29;29.00;46.90
40556;DHT22;26250;45.422;11.100;2022-07-18T05:16:56;29.10;47.00
40556;DHT22;26250;45.422;11.100;2022-07-18T05:19:23;29.10;47.00
40556;DHT22;26250;45.422;11.100;2022-07-18T05:21:52;29.20;47.00
40556;DHT22;26250;45.422;11.100;2022-07-18T05:24:19;29.20;47.10
40556;DHT22;26250;45.422;11.100;2022-07-18T05:26:46;29.10;47.00
40556;DHT22;26250;45.422;11.100;2022-07-18T05:29:13;29.00;47.10
40556;DHT22;26250;45.422;11.100;2022-07-18T05:31:41;29.00;47.10
40556;DHT22;26250;45.422;11.100;2022-07-18T05:34:08;29.00;47.20
40556;DHT22;26250;45.422;11.100;2022-07-18T05:36:35;29.00;47.00
40556;DHT22;26250;45.422;11.100;2022-07-18T05:39:03;29.10;47.00
40556;DHT22;26250;45.422;11.100;2022-07-18T05:41:30;29.20;46.90
40556;DHT22;26250;45.422;11.100;2022-07-18T05:43:57;29.40;47.00
40556;DHT22;26250;45.422;11.100;2022-07-18T05:46:24;29.50;46.10
40556;DHT22;26250;45.422;11.100;2022-07-18T05:48:50;29.50;46.00
40556;DHT22;26250;45.422;11.100;2022-07-18T05:51:19;29.60;45.90
40556;DHT22;26250;45.422;11.100;2022-07-18T05:53:46;29.50;46.00
40556;DHT22;26250;45.422;11.100;2022-07-18T05:56:13;29.60;45.90
40556;DHT22;26250;45.422;11.100;2022-07-18T05:58:42;29.60;45.60
40556;DHT22;26250;45.422;11.100;2022-07-18T06:01:13;29.60;45.80
40556;DHT22;26250;45.422;11.100;2022-07-18T06:03:43;29.60;46.00
40556;DHT22;26250;45.422;11.100;2022-07-18T06:06:10;29.50;46.10
40556;DHT22;26250;45.422;11.100;2022-07-18T06:08:37;29.50;46.00
40556;DHT22;26250;45.422;11.100;2022-07-18T06:11:08;29.50;45.90
40556;DHT22;26250;45.422;11.100;2022-07-18T06:13:37;29.50;45.60
40556;DHT22;26250;45.422;11.100;2022-07-18T06:16:05;29.50;45.30
40556;DHT22;26250;45.422;11.100;2022-07-18T06:18:33;29.50;45.60
40556;DHT22;26250;45.422;11.100;2022-07-18T06:21:04;29.50;45.90
40556;DHT22;26250;45.422;11.100;2022-07-18T06:23:33;29.50;45.80
40556;DHT22;26250;45.422;11.100;2022-07-18T06:26:02;29.50;45.50
40556;DHT22;26250;45.422;11.100;2022-07-18T06:28:30;29.40;45.40
40556;DHT22;26250;45.422;11.100;2022-07-18T06:30:57;29.40;45.80
40556;DHT22;26250;45.422;11.100;2022-07-18T06:33:24;29.50;45.50
40556;DHT22;26250;45.422;11.100;2022-07-18T06:35:51;29.50;45.10
40556;DHT22;26250;45.422;11.100;2022-07-18T06:38:18;29.60;45.20
40556;DHT22;26250;45.422;11.100;2022-07-18T06:40:46;29.70;44.90
40556;DHT22;26250;45.422;11.100;2022-07-18T06:43:13;30.00;44.40
40556;DHT22;26250;45.422;11.100;2022-07-18T06:45:49;30.20;44.20
40556;DHT22;26250;45.422;11.100;2022-07-18T06:48:18;30.30;44.10
40556;DHT22;26250;45.422;11.100;2022-07-18T06:50:45;30.20;44.40
40556;DHT22;26250;45.422;11.100;2022-07-18T06:53:13;30.10;44.30
40556;DHT22;26250;45.422;11.100;2022-07-18T06:55:40;30.00;44.40
40556;DHT22;26250;45.422;11.100;2022-07-18T06:58:06;30.00;44.40
40556;DHT22;26250;45.422;11.100;2022-07-18T07:00:33;30.20;44.40
40556;DHT22;26250;45.422;11.100;2022-07-18T07:03:00;30.30;44.20
40556;DHT22;26250;45.422;11.100;2022-07-18T07:05:27;30.30;43.40
40556;DHT22;26250;45.422;11.100;2022-07-18T07:07:54;30.30;43.70
40556;DHT22;26250;45.422;11.100;2022-07-18T07:10:21;30.10;43.70
40556;DHT22;26250;45.422;11.100;2022-07-18T07:12:50;30.10;43.60
40556;DHT22;26250;45.422;11.100;2022-07-18T07:15:22;30.10;43.50
40556;DHT22;26250;45.422;11.100;2022-07-18T07:17:49;30.00;43.60
40556;DHT22;26250;45.422;11.100;2022-07-18T07:20:16;30.00;44.10
40556;DHT22;26250;45.422;11.100;2022-07-18T07:22:53;29.90;44.10
40556;DHT22;26250;45.422;11.100;2022-07-18T07:25:22;29.90;44.10
40556;DHT22;26250;45.422;11.100;2022-07-18T07:27:53;29.80;44.10
40556;DHT22;26250;45.422;11.100;2022-07-18T07:30:20;29.90;44.20
40556;DHT22;26250;45.422;11.100;2022-07-18T07:32:47;29.90;44.30
40556;DHT22;26250;45.422;11.100;2022-07-18T07:35:19;29.80;44.20
40556;DHT22;26250;45.422;11.100;2022-07-18T07:37:49;29.80;44.10
40556;DHT22;26250;45.422;11.100;2022-07-18T07:40:17;29.80;44.10
40556;DHT22;26250;45.422;11.100;2022-07-18T07:42:47;29.80;44.40
40556;DHT22;26250;45.422;11.100;2022-07-18T07:45:14;29.90;44.40
40556;DHT22;26250;45.422;11.100;2022-07-18T07:47:43;29.90;44.30
40556;DHT22;26250;45.422;11.100;2022-07-18T07:50:12;30.10;43.70
40556;DHT22;26250;45.422;11.100;2022-07-18T07:52:39;30.30;43.50
40556;DHT22;26250;45.422;11.100;2022-07-18T07:55:07;30.40;43.80
40556;DHT22;26250;45.422;11.100;2022-07-18T07:57:34;30.50;43.50
40556;DHT22;26250;45.422;11.100;2022-07-18T08:00:08;30.50;43.50
40556;DHT22;26250;45.422;11.100;2022-07-18T08:02:59;30.70;43.50
40556;DHT22;26250;45.422;11.100;2022-07-18T08:05:29;30.60;43.40
40556;DHT22;26250;45.422;11.100;2022-07-18T08:08:00;30.60;43.70
40556;DHT22;26250;45.422;11.100;2022-07-18T08:10:28;30.70;43.10
40556;DHT22;26250;45.422;11.100;2022-07-18T08:12:55;30.80;43.50
40556;DHT22;26250;45.422;11.100;2022-07-18T08:15:22;30.90;43.70
40556;DHT22;26250;45.422;11.100;2022-07-18T08:17:51;30.90;43.70
40556;DHT22;26250;45.422;11.100;2022-07-18T08:20:18;30.80;43.70
40556;DHT22;26250;45.422;11.100;2022-07-18T08:23:01;30.70;43.20
40556;DHT22;26250;45.422;11.100;2022-07-18T08:25:30;30.60;43.10
40556;DHT22;26250;45.422;11.100;2022-07-18T08:27:59;30.60;43.40
40556;DHT22;26250;45.422;11.100;2022-07-18T08:30:26;30.60;43.20
40556;DHT22;26250;45.422;11.100;2022-07-18T08:32:54;30.60;43.40
40556;DHT22;26250;45.422;11.100;2022-07-18T08:35:21;30.70;43.50
40556;DHT22;26250;45.422;11.100;2022-07-18T08:37:49;30.80;42.90
40556;DHT22;26250;45.422;11.100;2022-07-18T08:40:16;30.90;42.50
40556;DHT22;26250;45.422;11.100;2022-07-18T08:42:43;30.90;42.50
40556;DHT22;26250;45.422;11.100;2022-07-18T08:45:30;30.90;42.50
40556;DHT22;26250;45.422;11.100;2022-07-18T08:47:57;30.90;42.30
40556;DHT22;26250;45.422;11.100;2022-07-18T08:50:24;31.00;42.70
40556;DHT22;26250;45.422;11.100;2022-07-18T08:52:53;31.10;42.00
40556;DHT22;26250;45.422;11.100;2022-07-18T08:55:21;31.00;41.90
40556;DHT22;26250;45.422;11.100;2022-07-18T08:57:51;31.10;42.00
40556;DHT22;26250;45.422;11.100;2022-07-18T09:00:20;31.20;41.80
40556;DHT22;26250;45.422;11.100;2022-07-18T09:03:00;31.20;42.00
40556;DHT22;26250;45.422;11.100;2022-07-18T09:05:28;31.20;42.30
40556;DHT22;26250;45.422;11.100;2022-07-18T09:13:17;31.20;41.70
40556;DHT22;26250;45.422;11.100;2022-07-18T09:16:11;31.10;42.10
40556;DHT22;26250;45.422;11.100;2022-07-18T09:18:42;31.20;42.40
40556;DHT22;26250;45.422;11.100;2022-07-18T09:21:20;31.20;41.60
40556;DHT22;26250;45.422;11.100;2022-07-18T09:23:50;31.20;41.70
40556;DHT22;26250;45.422;11.100;2022-07-18T09:26:40;31.30;41.90
40556;DHT22;26250;45.422;11.100;2022-07-18T09:29:10;31.30;42.10
40556;DHT22;26250;45.422;11.100;2022-07-18T09:31:52;31.40;42.00
40556;DHT22;26250;45.422;11.100;2022-07-18T09:34:38;31.40;42.00
40556;DHT22;26250;45.422;11.100;2022-07-18T09:37:10;31.40;42.20
40556;DHT22;26250;45.422;11.100;2022-07-18T09:39:38;31.50;42.10
40556;DHT22;26250;45.422;11.100;2022-07-18T09:42:15;31.50;42.00
40556;DHT22;26250;45.422;11.100;2022-07-18T09:44:46;31.40;42.20
40556;DHT22;26250;45.422;11.100;2022-07-18T09:47:23;31.40;42.40
40556;DHT22;26250;45.422;11.100;2022-07-18T09:49:49;31.50;42.30
40556;DHT22;26250;45.422;11.100;2022-07-18T09:52:17;31.50;42.50
40556;DHT22;26250;45.422;11.100;2022-07-18T09:54:44;31.50;42.70
40556;DHT22;26250;45.422;11.100;2022-07-18T09:57:23;31.50;42.50
40556;DHT22;26250;45.422;11.100;2022-07-18T09:59:51;31.50;42.50
40556;DHT22;26250;45.422;11.100;2022-07-18T10:02:19;31.60;42.60
40556;DHT22;26250;45.422;11.100;2022-07-18T10:04:46;31.70;42.40
40556;DHT22;26250;45.422;11.100;2022-07-18T10:07:15;31.80;42.40
40556;DHT22;26250;45.422;11.100;2022-07-18T10:09:45;31.80;42.50
40556;DHT22;26250;45.422;11.100;2022-07-18T10:12:15;31.70;42.10
40556;DHT22;26250;45.422;11.100;2022-07-18T10:14:45;31.80;41.90
40556;DHT22;26250;45.422;11.100;2022-07-18T10:17:12;31.80;42.00
40556;DHT22;26250;45.422;11.100;2022-07-18T10:19:40;31.80;42.50
40556;DHT22;26250;45.422;11.100;2022-07-18T10:22:07;31.80;42.90
40556;DHT22;26250;45.422;11.100;2022-07-18T10:24:38;31.80;42.90
40556;DHT22;26250;45.422;11.100;2022-07-18T10:27:18;31.90;43.10
40556;DHT22;26250;45.422;11.100;2022-07-18T10:30:08;31.90;42.50
40556;DHT22;26250;45.422;11.100;2022-07-18T10:32:36;32.00;43.30
40556;DHT22;26250;45.422;11.100;2022-07-18T10:35:04;32.10;42.50
40556;DHT22;26250;45.422;11.100;2022-07-18T10:37:34;32.20;42.50
40556;DHT22;26250;45.422;11.100;2022-07-18T10:40:23;32.30;42.70
40556;DHT22;26250;45.422;11.100;2022-07-18T10:45:58;32.40;43.40
40556;DHT22;26250;45.422;11.100;2022-07-18T10:59:18;32.60;43.20
40556;DHT22;26250;45.422;11.100;2022-07-18T11:01:53;32.60;43.10
40556;DHT22;26250;45.422;11.100;2022-07-18T11:04:28;32.60;43.30
40556;DHT22;26250;45.422;11.100;2022-07-18T11:07:14;32.70;43.20
40556;DHT22;26250;45.422;11.100;2022-07-18T11:09:46;32.80;43.00
40556;DHT22;26250;45.422;11.100;2022-07-18T11:12:26;32.70;43.30
40556;DHT22;26250;45.422;11.100;2022-07-18T11:20:36;33.00;43.50
40556;DHT22;26250;45.422;11.100;2022-07-18T11:23:29;33.00;42.80
40556;DHT22;26250;45.422;11.100;2022-07-18T11:26:03;32.90;42.50
40556;DHT22;26250;45.422;11.100;2022-07-18T11:28:30;33.00;42.90
40556;DHT22;26250;45.422;11.100;2022-07-18T11:31:04;33.00;43.00
40556;DHT22;26250;45.422;11.100;2022-07-18T11:33:36;33.00;43.40
40556;DHT22;26250;45.422;11.100;2022-07-18T11:36:09;33.10;43.30
40556;DHT22;26250;45.422;11.100;2022-07-18T11:38:37;33.20;42.90
40556;DHT22;26250;45.422;11.100;2022-07-18T11:41:04;33.20;43.20
40556;DHT22;26250;45.422;11.100;2022-07-18T11:43:31;33.30;43.60
40556;DHT22;26250;45.422;11.100;2022-07-18T11:48:29;33.30;42.50
40556;DHT22;26250;45.422;11.100;2022-07-18T11:50:57;33.30;42.70
40556;DHT22;26250;45.422;11.100;2022-07-18T11:53:24;33.30;43.20
40556;DHT22;26250;45.422;11.100;2022-07-18T11:55:53;33.30;43.10
40556;DHT22;26250;45.422;11.100;2022-07-18T11:58:20;33.20;43.70
40556;DHT22;26250;45.422;11.100;2022-07-18T12:00:48;33.30;43.10
40556;DHT22;26250;45.422;11.100;2022-07-18T12:05:48;33.40;42.10
40556;DHT22;26250;45.422;11.100;2022-07-18T12:16:41;33.60;42.00
40556;DHT22;26250;45.422;11.100;2022-07-18T12:19:15;33.50;42.10
40556;DHT22;26250;45.422;11.100;2022-07-18T12:21:59;33.50;42.70
40556;DHT22;26250;45.422;11.100;2022-07-18T12:27:34;33.70;42.60
40556;DHT22;26250;45.422;11.100;2022-07-18T12:30:19;33.70;42.20
40556;DHT22;26250;45.422;11.100;2022-07-18T12:32:50;33.60;42.50
40556;DHT22;26250;45.422;11.100;2022-07-18T12:35:28;33.60;42.60
40556;DHT22;26250;45.422;11.100;2022-07-18T12:38:13;33.70;41.80
40556;DHT22;26250;45.422;11.100;2022-07-18T12:40:58;33.70;41.40
40556;DHT22;26250;45.422;11.100;2022-07-18T12:43:35;33.70;41.60
40556;DHT22;26250;45.422;11.100;2022-07-18T12:46:08;33.70;41.30
40556;DHT22;26250;45.422;11.100;2022-07-18T12:48:36;33.70;41.60
40556;DHT22;26250;45.422;11.100;2022-07-18T12:51:09;33.70;41.50
40556;DHT22;26250;45.422;11.100;2022-07-18T12:53:38;33.70;42.30
40556;DHT22;26250;45.422;11.100;2022-07-18T12:56:06;33.70;42.20
40556;DHT22;26250;45.422;11.100;2022-07-18T12:58:33;33.70;41.90
40556;DHT22;26250;45.422;11.100;2022-07-18T13:01:03;33.80;41.50
40556;DHT22;26250;45.422;11.100;2022-07-18T13:03:34;33.80;41.70
40556;DHT22;26250;45.422;11.100;2022-07-18T13:06:01;33.70;42.10
40556;DHT22;26250;45.422;11.100;2022-07-18T13:08:31;33.80;42.10
40556;DHT22;26250;45.422;11.100;2022-07-18T13:10:58;33.80;41.80
40556;DHT22;26250;45.422;11.100;2022-07-18T13:13:26;33.90;42.00
40556;DHT22;26250;45.422;11.100;2022-07-18T13:15:53;33.90;42.40
40556;DHT22;26250;45.422;11.100;2022-07-18T13:18:20;33.90;42.80
40556;DHT22;26250;45.422;11.100;2022-07-18T13:20:47;33.90;43.10
40556;DHT22;26250;45.422;11.100;2022-07-18T13:23:14;34.00;42.70
40556;DHT22;26250;45.422;11.100;2022-07-18T13:25:42;34.10;41.80
40556;DHT22;26250;45.422;11.100;2022-07-18T13:28:10;34.10;41.40
40556;DHT22;26250;45.422;11.100;2022-07-18T13:30:38;34.00;40.90
40556;DHT22;26250;45.422;11.100;2022-07-18T13:33:05;34.00;41.20
40556;DHT22;26250;45.422;11.100;2022-07-18T13:35:32;34.10;41.60
40556;DHT22;26250;45.422;11.100;2022-07-18T13:37:59;34.10;42.40
40556;DHT22;26250;45.422;11.100;2022-07-18T13:40:26;34.10;42.30
40556;DHT22;26250;45.422;11.100;2022-07-18T13:42:54;34.10;42.10
40556;DHT22;26250;45.422;11.100;2022-07-18T13:45:21;34.20;42.40
40556;DHT22;26250;45.422;11.100;2022-07-18T13:47:48;34.20;41.50
40556;DHT22;26250;45.422;11.100;2022-07-18T13:50:15;34.20;41.40
40556;DHT22;26250;45.422;11.100;2022-07-18T13:52:42;34.30;41.40
40556;DHT22;26250;45.422;11.100;2022-07-18T13:55:10;34.20;41.60
40556;DHT22;26250;45.422;11.100;2022-07-18T13:57:37;34.10;41.30
40556;DHT22;26250;45.422;11.100;2022-07-18T14:00:06;34.10;41.60
40556;DHT22;26250;45.422;11.100;2022-07-18T14:02:34;34.10;41.80
40556;DHT22;26250;45.422;11.100;2022-07-18T14:05:02;34.10;41.80
40556;DHT22;26250;45.422;11.100;2022-07-18T14:07:41;34.10;41.70
40556;DHT22;26250;45.422;11.100;2022-07-18T14:10:08;34.10;41.70
40556;DHT22;26250;45.422;11.100;2022-07-18T14:12:35;34.20;41.90
40556;DHT22;26250;45.422;11.100;2022-07-18T14:15:02;34.20;41.50
40556;DHT22;26250;45.422;11.100;2022-07-18T14:17:29;34.20;41.70
40556;DHT22;26250;45.422;11.100;2022-07-18T14:19:57;34.20;41.80
40556;DHT22;26250;45.422;11.100;2022-07-18T14:22:24;34.20;41.40
40556;DHT22;26250;45.422;11.100;2022-07-18T14:24:50;34.20;41.30
40556;DHT22;26250;45.422;11.100;2022-07-18T14:27:17;34.20;41.50
40556;DHT22;26250;45.422;11.100;2022-07-18T14:29:50;34.30;41.50
40556;DHT22;26250;45.422;11.100;2022-07-18T14:32:18;34.30;41.60
40556;DHT22;26250;45.422;11.100;2022-07-18T14:34:45;34.30;41.90
40556;DHT22;26250;45.422;11.100;2022-07-18T14:37:12;34.30;42.10
40556;DHT22;26250;45.422;11.100;2022-07-18T14:39:38;34.20;42.00
40556;DHT22;26250;45.422;11.100;2022-07-18T14:42:05;34.20;42.20
40556;DHT22;26250;45.422;11.100;2022-07-18T14:44:32;34.20;42.20
40556;DHT22;26250;45.422;11.100;2022-07-18T14:46:59;34.20;42.00
40556;DHT22;26250;45.422;11.100;2022-07-18T14:49:27;34.20;42.10
40556;DHT22;26250;45.422;11.100;2022-07-18T14:51:54;34.20;41.90
40556;DHT22;26250;45.422;11.100;2022-07-18T14:54:23;34.30;42.00
40556;DHT22;26250;45.422;11.100;2022-07-18T14:56:50;34.30;42.10
40556;DHT22;26250;45.422;11.100;2022-07-18T14:59:18;34.30;42.20
40556;DHT22;26250;45.422;11.100;2022-07-18T15:01:47;34.40;42.40
40556;DHT22;26250;45.422;11.100;2022-07-18T15:04:15;34.40;41.70
40556;DHT22;26250;45.422;11.100;2022-07-18T15:06:45;34.40;41.80
40556;DHT22;26250;45.422;11.100;2022-07-18T15:09:13;34.50;41.80
40556;DHT22;26250;45.422;11.100;2022-07-18T15:11:40;34.40;41.80
40556;DHT22;26250;45.422;11.100;2022-07-18T15:14:07;34.40;42.00
40556;DHT22;26250;45.422;11.100;2022-07-18T15:16:34;34.40;41.70
40556;DHT22;26250;45.422;11.100;2022-07-18T15:19:01;34.40;41.50
40556;DHT22;26250;45.422;11.100;2022-07-18T15:21:29;34.40;41.30
40556;DHT22;26250;45.422;11.100;2022-07-18T15:23:57;34.40;41.80
40556;DHT22;26250;45.422;11.100;2022-07-18T15:26:25;34.50;41.40
40556;DHT22;26250;45.422;11.100;2022-07-18T15:28:52;34.40;41.60
40556;DHT22;26250;45.422;11.100;2022-07-18T15:31:21;34.30;41.90
40556;DHT22;26250;45.422;11.100;2022-07-18T15:33:48;34.30;41.80
40556;DHT22;26250;45.422;11.100;2022-07-18T15:36:15;34.40;42.00
40556;DHT22;26250;45.422;11.100;2022-07-18T15:38:43;34.40;41.70
40556;DHT22;26250;45.422;11.100;2022-07-18T15:41:11;34.40;41.40
40556;DHT22;26250;45.422;11.100;2022-07-18T15:43:39;34.40;41.50
40556;DHT22;26250;45.422;11.100;2022-07-18T15:46:09;34.40;41.50
40556;DHT22;26250;45.422;11.100;2022-07-18T15:48:36;34.40;41.40
40556;DHT22;26250;45.422;11.100;2022-07-18T15:51:03;34.50;41.20
40556;DHT22;26250;45.422;11.100;2022-07-18T15:53:30;34.50;41.50
40556;DHT22;26250;45.422;11.100;2022-07-18T15:55:57;34.50;41.20
40556;DHT22;26250;45.422;11.100;2022-07-18T15:58:24;34.50;41.00
40556;DHT22;26250;45.422;11.100;2022-07-18T16:00:52;34.50;41.10
40556;DHT22;26250;45.422;11.100;2022-07-18T16:03:19;34.60;41.30
40556;DHT22;26250;45.422;11.100;2022-07-18T16:05:46;34.60;41.10
40556;DHT22;26250;45.422;11.100;2022-07-18T16:08:13;34.50;41.20
40556;DHT22;26250;45.422;11.100;2022-07-18T16:10:40;34.50;41.40